createdAt,value
2019-04-01T00:01:14.604Z,2.70
2019-04-01T00:03:43.972Z,2.70
2019-04-01T00:06:13.360Z,2.70
2019-04-01T00:08:42.810Z,2.70
2019-04-01T00:11:13.839Z,2.70
2019-04-01T00:13:43.166Z,2.70
2019-04-01T00:16:13.668Z,2.60
2019-04-01T00:18:43.539Z,2.60
2019-04-01T00:21:13.943Z,2.60
2019-04-01T00:23:43.266Z,2.60
2019-04-01T00:26:12.609Z,2.60
2019-04-01T00:28:48.202Z,2.50
2019-04-01T00:31:17.623Z,2.50
2019-04-01T00:33:46.955Z,2.50
2019-04-01T00:36:17.995Z,2.50
2019-04-01T00:38:47.355Z,2.40
2019-04-01T00:41:16.766Z,2.40
2019-04-01T00:43:57.326Z,2.30
2019-04-01T00:46:26.919Z,2.30
2019-04-01T00:48:59.098Z,2.40
2019-04-01T00:51:30.051Z,2.40
2019-04-01T00:54:00.640Z,2.50
2019-04-01T00:56:30.040Z,2.50
2019-04-01T00:58:59.364Z,2.40
2019-04-01T01:01:29.450Z,2.40
2019-04-01T01:03:58.800Z,2.40
2019-04-01T01:06:28.467Z,2.40
2019-04-01T01:08:59.450Z,2.30
2019-04-01T01:11:28.764Z,2.30
2019-04-01T01:13:58.374Z,2.20
2019-04-01T01:16:28.276Z,2.20
2019-04-01T01:18:57.688Z,2.20
2019-04-01T01:21:27.606Z,2.20
2019-04-01T01:23:57.714Z,2.10
2019-04-01T01:26:27.687Z,2.20
2019-04-01T01:28:57.012Z,2.10
2019-04-01T01:31:26.853Z,2.00
2019-04-01T01:33:57.940Z,2.00
2019-04-01T01:36:28.480Z,1.90
2019-04-01T01:38:59.915Z,1.90
2019-04-01T01:41:47.628Z,2.00
2019-04-01T01:44:16.983Z,2.10
2019-04-01T01:46:46.324Z,2.10
2019-04-01T01:49:15.887Z,2.10
2019-04-01T01:51:45.207Z,2.10
2019-04-01T01:54:14.541Z,2.10
2019-04-01T01:56:43.881Z,2.10
2019-04-01T01:59:13.191Z,2.00
2019-04-01T02:01:42.536Z,1.90
2019-04-01T02:04:11.937Z,1.90
2019-04-01T02:06:41.354Z,1.90
2019-04-01T02:09:10.739Z,1.80
2019-04-01T02:11:40.091Z,1.80
2019-04-01T02:14:09.624Z,1.80
2019-04-01T02:16:38.952Z,1.70
2019-04-01T02:19:11.379Z,1.60
2019-04-01T02:21:42.942Z,1.60
2019-04-01T02:24:12.280Z,1.60
2019-04-01T02:26:41.600Z,1.50
2019-04-01T02:29:14.098Z,1.50
2019-04-01T02:31:43.467Z,1.60
2019-04-01T02:34:12.797Z,1.50
2019-04-01T02:36:44.375Z,1.50
2019-04-01T02:39:13.838Z,1.50
2019-04-01T02:41:43.204Z,1.70
2019-04-01T02:44:12.545Z,1.80
2019-04-01T02:46:41.872Z,1.70
2019-04-01T02:49:11.297Z,1.70
2019-04-01T02:51:40.792Z,1.90
2019-04-01T02:54:10.149Z,1.90
2019-04-01T02:56:39.471Z,1.80
2019-04-01T02:59:09.181Z,1.60
2019-04-01T03:01:38.532Z,1.50
2019-04-01T03:04:07.909Z,1.50
2019-04-01T03:06:37.316Z,1.60
2019-04-01T03:09:07.272Z,1.50
2019-04-01T03:11:37.095Z,0.80
2019-04-01T03:14:06.418Z,1.60
2019-04-01T03:16:36.346Z,1.50
2019-04-01T03:19:06.476Z,1.50
2019-04-01T03:21:36.820Z,1.50
2019-04-01T03:24:06.156Z,1.50
2019-04-01T03:26:35.480Z,1.50
2019-04-01T03:29:04.899Z,1.50
2019-04-01T03:31:34.264Z,1.50
2019-04-01T03:34:03.742Z,1.50
2019-04-01T03:36:34.084Z,1.40
2019-04-01T03:39:06.305Z,1.40
2019-04-01T03:41:35.696Z,1.40
2019-04-01T03:44:05.016Z,1.40
2019-04-01T03:46:37.726Z,1.30
2019-04-01T03:49:07.099Z,1.20
2019-04-01T03:51:36.507Z,1.20
2019-04-01T03:54:05.933Z,1.20
2019-04-01T03:56:35.343Z,1.30
2019-04-01T03:59:04.674Z,1.20
2019-04-01T04:01:34.086Z,1.20
2019-04-01T04:04:03.483Z,1.20
2019-04-01T04:06:32.949Z,1.20
2019-04-01T04:09:02.642Z,1.20
2019-04-01T04:11:33.285Z,1.20
2019-04-01T04:14:02.612Z,1.20
2019-04-01T04:16:31.968Z,1.20
2019-04-01T04:19:01.342Z,1.20
2019-04-01T04:21:30.778Z,1.20
2019-04-01T04:24:00.180Z,1.20
2019-04-01T04:26:29.574Z,1.20
2019-04-01T04:28:59.038Z,1.20
2019-04-01T04:31:28.384Z,1.20
2019-04-01T04:33:57.907Z,1.20
2019-04-01T04:36:27.267Z,1.20
2019-04-01T04:38:56.586Z,1.20
2019-04-01T04:41:25.943Z,1.30
2019-04-01T04:43:55.286Z,1.30
2019-04-01T04:46:24.647Z,1.30
2019-04-01T04:48:53.962Z,1.30
2019-04-01T04:51:23.298Z,1.20
2019-04-01T04:53:53.735Z,1.20
2019-04-01T04:56:23.204Z,1.20
2019-04-01T04:58:52.903Z,1.20
2019-04-01T05:01:22.404Z,1.10
2019-04-01T05:03:51.822Z,1.20
2019-04-01T05:06:21.164Z,1.20
2019-04-01T05:08:50.837Z,1.20
2019-04-01T05:11:20.188Z,1.20
2019-04-01T05:13:49.575Z,1.20
2019-04-01T05:16:18.919Z,1.30
2019-04-01T05:18:49.136Z,1.30
2019-04-01T05:21:19.119Z,1.40
2019-04-01T05:23:50.771Z,1.40
2019-04-01T05:26:21.700Z,1.40
2019-04-01T05:28:53.144Z,1.50
2019-04-01T05:31:25.320Z,1.50
2019-04-01T05:33:56.194Z,1.60
2019-04-01T05:36:26.380Z,1.60
2019-04-01T05:38:55.700Z,1.70
2019-04-01T05:41:25.109Z,1.70
2019-04-01T05:44:02.097Z,1.80
2019-04-01T05:46:30.403Z,1.90
2019-04-01T05:49:00.718Z,1.90
2019-04-01T05:51:30.912Z,1.90
2019-04-01T05:54:00.336Z,2.00
2019-04-01T05:56:30.345Z,2.10
2019-04-01T05:58:59.691Z,2.10
2019-04-01T06:01:30.783Z,2.20
2019-04-01T06:04:00.130Z,2.30
2019-04-01T06:06:35.234Z,2.30
2019-04-01T06:09:07.414Z,2.30
2019-04-01T06:11:37.518Z,2.40
2019-04-01T06:14:06.979Z,2.50
2019-04-01T06:16:38.340Z,2.60
2019-04-01T06:19:07.983Z,2.60
2019-04-01T06:21:37.326Z,2.70
2019-04-01T06:24:06.727Z,2.80
2019-04-01T06:26:36.082Z,2.90
2019-04-01T06:29:05.863Z,2.90
2019-04-01T06:31:36.062Z,3.00
2019-04-01T06:34:08.593Z,3.10
2019-04-01T06:36:38.936Z,3.20
2019-04-01T06:39:08.416Z,3.30
2019-04-01T06:41:37.745Z,3.50
2019-04-01T06:44:07.154Z,3.60
2019-04-01T06:46:36.556Z,3.70
2019-04-01T06:49:05.978Z,3.80
2019-04-01T06:51:35.363Z,3.90
2019-04-01T06:54:05.447Z,3.90
2019-04-01T06:56:34.771Z,4.00
2019-04-01T06:59:04.083Z,4.10
2019-04-01T07:01:36.497Z,4.30
2019-04-01T07:04:05.912Z,4.40
2019-04-01T07:06:35.331Z,4.50
2019-04-01T07:09:06.332Z,4.60
2019-04-01T07:11:35.851Z,4.80
2019-04-01T07:14:05.914Z,4.90
2019-04-01T07:16:35.306Z,4.90
2019-04-01T07:19:04.748Z,5.00
2019-04-01T07:21:34.245Z,5.10
2019-04-01T07:24:03.722Z,5.30
2019-04-01T07:26:33.152Z,5.40
2019-04-01T07:29:02.586Z,5.50
2019-04-01T07:31:32.011Z,5.70
2019-04-01T07:34:01.447Z,5.80
2019-04-01T07:36:30.776Z,6.00
2019-04-01T07:39:00.178Z,6.20
2019-04-01T07:41:33.051Z,6.60
2019-04-01T07:44:03.808Z,7.40
2019-04-01T07:46:33.194Z,8.10
2019-04-01T07:49:02.738Z,8.50
2019-04-01T07:51:32.197Z,8.90
2019-04-01T07:54:03.036Z,8.50
2019-04-01T07:56:32.439Z,7.90
2019-04-01T07:59:01.775Z,7.60
2019-04-01T08:01:31.159Z,7.40
2019-04-01T08:04:00.607Z,7.20
2019-04-01T08:06:29.945Z,7.20
2019-04-01T08:09:20.131Z,7.30
2019-04-01T08:11:51.219Z,7.40
2019-04-01T08:14:20.694Z,7.40
2019-04-01T08:16:50.904Z,7.60
2019-04-01T08:19:20.251Z,7.70
2019-04-01T08:21:52.366Z,7.80
2019-04-01T08:24:20.791Z,7.70
2019-04-01T08:26:50.197Z,7.70
2019-04-01T08:29:30.053Z,7.70
2019-04-01T08:31:50.603Z,7.80
2019-04-01T08:34:19.951Z,7.90
2019-04-01T08:36:49.284Z,8.00
2019-04-01T08:39:18.688Z,8.00
2019-04-01T08:41:48.091Z,8.00
2019-04-01T08:44:18.011Z,8.10
2019-04-01T08:46:47.419Z,8.10
2019-04-01T08:49:16.756Z,8.20
2019-04-01T08:51:46.229Z,8.50
2019-04-01T08:54:15.573Z,8.70
2019-04-01T08:56:44.958Z,8.80
2019-04-01T08:59:14.306Z,8.80
2019-04-01T09:01:43.647Z,8.70
2019-04-01T09:04:13.110Z,8.70
2019-04-01T09:06:42.504Z,8.90
2019-04-01T09:09:12.039Z,9.30
2019-04-01T09:11:42.143Z,9.50
2019-04-01T09:14:11.699Z,9.60
2019-04-01T09:16:42.269Z,9.80
2019-04-01T09:19:11.608Z,9.90
2019-04-01T09:21:40.998Z,9.80
2019-04-01T09:24:10.407Z,9.60
2019-04-01T09:26:39.773Z,9.50
2019-04-01T09:29:09.107Z,9.70
2019-04-01T09:31:38.441Z,9.90
2019-04-01T09:34:07.967Z,10.20
2019-04-01T09:36:37.304Z,10.30
2019-04-01T09:39:07.304Z,10.40
2019-04-01T09:41:36.630Z,10.50
2019-04-01T09:44:06.030Z,10.50
2019-04-01T09:46:35.360Z,10.10
2019-04-01T09:49:05.779Z,10.00
2019-04-01T09:51:47.775Z,9.80
2019-04-01T09:54:07.617Z,9.80
2019-04-01T09:56:37.087Z,9.70
2019-04-01T09:59:06.427Z,9.80
2019-04-01T10:01:35.762Z,9.80
2019-04-01T10:04:05.350Z,9.80
2019-04-01T10:06:34.751Z,9.80
2019-04-01T10:09:06.903Z,9.80
2019-04-01T10:11:36.301Z,9.70
2019-04-01T10:14:05.638Z,9.80
2019-04-01T10:16:34.991Z,10.10
2019-04-01T10:19:04.738Z,10.20
2019-04-01T10:21:34.089Z,10.20
2019-04-01T10:24:03.559Z,10.20
2019-04-01T10:26:34.796Z,10.00
2019-04-01T10:29:04.160Z,9.80
2019-04-01T10:31:33.477Z,9.70
2019-04-01T10:34:02.846Z,9.70
2019-04-01T10:36:32.201Z,9.70
2019-04-01T10:39:01.539Z,9.80
2019-04-01T10:41:32.554Z,9.90
2019-04-01T10:44:04.682Z,9.90
2019-04-01T10:46:33.040Z,9.80
2019-04-01T10:49:02.491Z,9.90
2019-04-01T10:51:31.898Z,10.00
2019-04-01T10:54:01.380Z,10.20
2019-04-01T10:56:30.794Z,10.30
2019-04-01T10:59:00.229Z,10.30
2019-04-01T11:01:29.645Z,10.20
2019-04-01T11:04:02.267Z,10.20
2019-04-01T11:06:31.745Z,10.00
2019-04-01T11:09:01.157Z,10.00
2019-04-01T11:11:31.764Z,10.10
2019-04-01T11:14:01.235Z,10.20
2019-04-01T11:16:31.819Z,10.20
2019-04-01T11:19:01.455Z,10.20
2019-04-01T11:21:30.823Z,10.10
2019-04-01T11:24:00.195Z,10.10
2019-04-01T11:26:29.593Z,10.00
2019-04-01T11:28:59.002Z,10.10
2019-04-01T11:31:28.475Z,10.30
2019-04-01T11:33:57.811Z,10.50
2019-04-01T11:36:27.257Z,10.70
2019-04-01T11:38:56.670Z,10.70
2019-04-01T11:41:26.178Z,10.80
2019-04-01T11:43:55.587Z,10.90
2019-04-01T11:46:25.322Z,11.00
2019-04-01T11:48:54.732Z,11.00
2019-04-01T11:51:32.672Z,11.10
2019-04-01T11:53:55.215Z,10.90
2019-04-01T11:56:26.819Z,11.00
2019-04-01T11:58:57.611Z,10.90
2019-04-01T12:01:28.647Z,10.90
2019-04-01T12:03:58.119Z,11.00
2019-04-01T12:06:27.471Z,11.10
2019-04-01T12:08:59.006Z,11.10
2019-04-01T12:11:28.628Z,11.10
2019-04-01T12:13:58.043Z,11.10
2019-04-01T12:16:27.521Z,11.20
2019-04-01T12:18:57.004Z,11.30
2019-04-01T12:21:26.591Z,11.30
2019-04-01T12:23:56.051Z,11.30
2019-04-01T12:26:25.455Z,11.20
2019-04-01T12:28:56.375Z,11.20
2019-04-01T12:31:26.692Z,11.40
2019-04-01T12:33:56.312Z,11.50
2019-04-01T12:36:25.766Z,11.40
2019-04-01T12:38:55.166Z,11.40
2019-04-01T12:41:24.527Z,11.40
2019-04-01T12:43:53.887Z,11.60
2019-04-01T12:46:23.358Z,11.70
2019-04-01T12:48:52.748Z,11.80
2019-04-01T12:51:23.612Z,12.10
2019-04-01T12:53:53.122Z,12.50
2019-04-01T12:56:22.847Z,12.80
2019-04-01T12:58:52.324Z,12.90
2019-04-01T13:01:21.767Z,12.90
2019-04-01T13:03:51.140Z,13.00
2019-04-01T13:06:20.586Z,13.10
2019-04-01T13:08:51.061Z,13.30
2019-04-01T13:11:20.549Z,13.40
2019-04-01T13:13:49.951Z,13.70
2019-04-01T13:16:19.380Z,14.10
2019-04-01T13:18:48.807Z,14.40
2019-04-01T13:21:19.887Z,14.70
2019-04-01T13:23:49.254Z,15.00
2019-04-01T13:26:18.798Z,15.00
2019-04-01T13:28:49.018Z,15.00
2019-04-01T13:31:19.586Z,15.20
2019-04-01T13:33:50.311Z,15.20
2019-04-01T13:36:21.091Z,15.00
2019-04-01T13:38:50.908Z,15.00
2019-04-01T13:41:20.361Z,15.10
2019-04-01T13:43:49.939Z,15.00
2019-04-01T13:46:19.505Z,15.40
2019-04-01T13:48:57.742Z,15.40
2019-04-01T13:51:32.875Z,15.30
2019-04-01T13:54:08.826Z,15.30
2019-04-01T13:56:35.601Z,15.50
2019-04-01T13:59:05.039Z,15.90
2019-04-01T14:01:37.301Z,16.50
2019-04-01T14:04:06.779Z,17.00
2019-04-01T14:06:36.170Z,17.30
2019-04-01T14:09:07.258Z,17.20
2019-04-01T14:11:38.173Z,17.50
2019-04-01T14:14:07.598Z,18.00
2019-04-01T14:16:37.051Z,18.10
2019-04-01T14:19:06.589Z,18.60
2019-04-01T14:21:37.497Z,18.60
2019-04-01T14:24:06.848Z,18.50
2019-04-01T14:26:36.234Z,18.20
2019-04-01T14:29:06.877Z,18.90
2019-04-01T14:31:36.577Z,19.70
2019-04-01T14:34:06.374Z,19.30
2019-04-01T14:36:36.072Z,19.00
2019-04-01T14:39:07.522Z,19.10
2019-04-01T14:41:36.965Z,19.70
2019-04-01T14:44:06.370Z,19.70
2019-04-01T14:46:35.797Z,19.70
2019-04-01T14:49:05.180Z,19.40
2019-04-01T14:51:34.555Z,19.20
2019-04-01T14:54:03.913Z,19.50
2019-04-01T14:56:33.346Z,20.20
2019-04-01T14:59:02.765Z,20.60
2019-04-01T15:01:32.131Z,20.80
2019-04-01T15:04:02.537Z,19.50
2019-04-01T15:06:31.890Z,18.00
2019-04-01T15:09:01.256Z,16.50
2019-04-01T15:11:32.275Z,15.40
2019-04-01T15:14:01.621Z,14.70
2019-04-01T15:16:32.563Z,14.20
2019-04-01T15:19:01.985Z,13.70
2019-04-01T15:21:31.315Z,13.40
2019-04-01T15:24:00.708Z,13.20
2019-04-01T15:26:30.119Z,13.00
2019-04-01T15:29:00.279Z,13.00
2019-04-01T15:31:29.862Z,12.90
2019-04-01T15:33:59.188Z,12.70
2019-04-01T15:36:28.562Z,12.60
2019-04-01T15:38:58.064Z,12.60
2019-04-01T15:41:27.546Z,12.60
2019-04-01T15:43:56.877Z,12.60
2019-04-01T15:46:27.184Z,12.50
2019-04-01T15:48:56.611Z,12.40
2019-04-01T15:51:26.018Z,12.30
2019-04-01T15:53:55.503Z,12.20
2019-04-01T15:56:24.863Z,12.10
2019-04-01T15:58:54.346Z,12.00
2019-04-01T16:01:23.789Z,11.90
2019-04-01T16:03:53.168Z,11.90
2019-04-01T16:06:22.513Z,12.00
2019-04-01T16:08:51.889Z,12.00
2019-04-01T16:11:21.644Z,11.90
2019-04-01T16:13:51.049Z,11.70
2019-04-01T16:16:20.443Z,11.70
2019-04-01T16:18:50.489Z,11.60
2019-04-01T16:21:19.891Z,11.50
2019-04-01T16:23:49.349Z,11.40
2019-04-01T16:26:18.759Z,11.40
2019-04-01T16:28:48.221Z,11.40
2019-04-01T16:31:17.648Z,11.30
2019-04-01T16:33:48.672Z,11.30
2019-04-01T16:36:18.039Z,11.30
2019-04-01T16:38:47.469Z,11.20
2019-04-01T16:41:18.468Z,11.10
2019-04-01T16:43:47.852Z,11.00
2019-04-01T16:46:17.709Z,11.00
2019-04-01T16:48:47.052Z,10.90
2019-04-01T16:51:16.475Z,10.90
2019-04-01T16:53:46.870Z,10.90
2019-04-01T16:56:16.278Z,10.80
2019-04-01T16:58:45.630Z,10.80
2019-04-01T17:01:15.053Z,10.70
2019-04-01T17:03:44.395Z,10.70
2019-04-01T17:06:13.795Z,10.60
2019-04-01T17:08:43.176Z,10.50
2019-04-01T17:11:13.836Z,10.50
2019-04-01T17:13:43.757Z,10.40
2019-04-01T17:16:13.134Z,10.40
2019-04-01T17:18:42.556Z,10.30
2019-04-01T17:21:13.531Z,10.30
2019-04-01T17:23:43.988Z,10.20
2019-04-01T17:26:13.504Z,10.10
2019-04-01T17:28:42.848Z,10.00
2019-04-01T17:31:12.300Z,9.90
2019-04-01T17:33:41.707Z,9.90
2019-04-01T17:36:11.449Z,9.80
2019-04-01T17:38:41.009Z,9.80
2019-04-01T17:41:10.451Z,9.60
2019-04-01T17:43:39.923Z,9.60
2019-04-01T17:46:09.400Z,9.60
2019-04-01T17:48:39.900Z,9.60
2019-04-01T17:51:09.330Z,9.50
2019-04-01T17:53:38.697Z,9.30
2019-04-01T17:56:09.207Z,9.30
2019-04-01T17:58:38.602Z,9.20
2019-04-01T18:01:10.401Z,9.20
2019-04-01T18:03:39.771Z,9.10
2019-04-01T18:06:09.228Z,9.00
2019-04-01T18:08:38.597Z,9.00
2019-04-01T18:11:08.015Z,9.00
2019-04-01T18:13:37.352Z,8.90
2019-04-01T18:16:06.676Z,8.80
2019-04-01T18:18:36.027Z,8.80
2019-04-01T18:21:06.998Z,8.70
2019-04-01T18:23:36.384Z,8.70
2019-04-01T18:26:05.733Z,8.60
2019-04-01T18:28:35.123Z,8.60
2019-04-01T18:31:04.492Z,8.50
2019-04-01T18:33:33.859Z,8.50
2019-04-01T18:36:03.297Z,8.50
2019-04-01T18:38:32.656Z,8.40
2019-04-01T18:41:02.059Z,8.30
2019-04-01T18:43:31.375Z,8.30
2019-04-01T18:46:00.719Z,8.20
2019-04-01T18:48:30.080Z,8.20
2019-04-01T18:50:59.407Z,8.20
2019-04-01T18:53:28.795Z,8.20
2019-04-01T18:55:59.254Z,8.00
2019-04-01T18:58:29.268Z,8.00
2019-04-01T19:00:58.694Z,7.90
2019-04-01T19:03:28.156Z,7.80
2019-04-01T19:05:57.571Z,7.80
2019-04-01T19:08:26.893Z,7.80
2019-04-01T19:11:02.200Z,7.80
2019-04-01T19:13:27.493Z,7.80
2019-04-01T19:15:57.833Z,7.80
2019-04-01T19:18:27.602Z,7.70
2019-04-01T19:21:01.663Z,7.60
2019-04-01T19:23:28.065Z,7.50
2019-04-01T19:25:57.442Z,7.50
2019-04-01T19:28:26.892Z,7.40
2019-04-01T19:31:00.105Z,7.50
2019-04-01T19:33:29.546Z,7.40
2019-04-01T19:35:58.957Z,7.40
2019-04-01T19:38:28.406Z,7.30
2019-04-01T19:40:59.782Z,7.20
2019-04-01T19:43:29.328Z,7.20
2019-04-01T19:45:58.701Z,7.20
2019-04-01T19:48:28.250Z,7.10
2019-04-01T19:51:00.749Z,7.10
2019-04-01T19:53:30.116Z,7.10
2019-04-01T19:55:59.704Z,7.00
2019-04-01T19:58:30.904Z,7.00
2019-04-01T20:01:00.646Z,6.90
2019-04-01T20:03:30.760Z,6.90
2019-04-01T20:06:00.269Z,6.90
2019-04-01T20:08:29.615Z,6.80
2019-04-01T20:10:58.990Z,6.80
2019-04-01T20:13:28.865Z,6.80
2019-04-01T20:15:58.267Z,6.70
2019-04-01T20:18:27.728Z,6.70
2019-04-01T20:20:57.087Z,6.70
2019-04-01T20:23:26.557Z,6.70
2019-04-01T20:25:56.037Z,6.60
2019-04-01T20:28:25.869Z,6.50
2019-04-01T20:30:56.581Z,6.50
2019-04-01T20:33:26.238Z,6.50
2019-04-01T20:35:57.379Z,6.50
2019-04-01T20:38:27.793Z,6.60
2019-04-01T20:40:59.505Z,6.50
2019-04-01T20:43:28.924Z,6.40
2019-04-01T20:45:58.303Z,6.40
2019-04-01T20:48:27.664Z,6.30
2019-04-01T20:50:57.242Z,6.40
2019-04-01T20:53:27.002Z,6.60
2019-04-01T20:55:56.342Z,6.60
2019-04-01T20:58:25.694Z,6.50
2019-04-01T21:00:56.598Z,6.40
2019-04-01T21:03:30.094Z,6.50
2019-04-01T21:05:59.714Z,6.50
2019-04-01T21:12:16.336Z,6.30
2019-04-01T21:14:47.789Z,6.20
2019-04-01T21:17:17.016Z,6.00
2019-04-01T21:19:46.549Z,6.00
2019-04-01T21:22:16.060Z,6.00
2019-04-01T21:24:45.442Z,5.90
2019-04-01T21:27:14.853Z,5.90
2019-04-01T21:29:47.166Z,5.80
2019-04-01T21:32:17.087Z,5.80
2019-04-01T21:34:46.791Z,5.70
2019-04-01T21:37:17.285Z,5.70
2019-04-01T21:39:46.776Z,5.60
2019-04-01T21:42:16.117Z,5.70
2019-04-01T21:44:46.949Z,5.60
2019-04-01T21:47:16.617Z,5.70
2019-04-01T21:49:46.081Z,5.60
2019-04-01T21:52:15.564Z,5.50
2019-04-01T21:54:44.873Z,5.50
2019-04-01T21:57:14.258Z,5.50
2019-04-01T21:59:43.609Z,5.40
2019-04-01T22:02:14.247Z,5.40
2019-04-01T22:04:44.470Z,5.30
2019-04-01T22:07:13.818Z,5.30
2019-04-01T22:09:43.859Z,5.30
2019-04-01T22:12:13.186Z,5.30
2019-04-01T22:14:42.561Z,5.20
2019-04-01T22:17:11.907Z,5.20
2019-04-01T22:19:41.541Z,5.10
2019-04-01T22:22:11.900Z,5.10
2019-04-01T22:24:41.239Z,5.10
2019-04-01T22:27:10.561Z,5.10
2019-04-01T22:29:39.892Z,5.00
2019-04-01T22:32:09.302Z,5.10
2019-04-01T22:34:41.703Z,5.00
2019-04-01T22:37:11.078Z,5.00
2019-04-01T22:39:40.415Z,4.90
2019-04-01T22:42:09.743Z,5.00
2019-04-01T22:44:40.603Z,5.00
2019-04-01T22:47:09.947Z,4.90
2019-04-01T22:49:41.011Z,4.90
2019-04-01T22:52:10.614Z,4.80
2019-04-01T22:54:40.151Z,4.80
2019-04-01T22:57:09.655Z,4.80
2019-04-01T22:59:39.046Z,4.80
2019-04-01T23:02:08.463Z,4.80
2019-04-01T23:04:39.304Z,4.80
2019-04-01T23:07:08.967Z,4.70
2019-04-01T23:09:38.275Z,4.70
2019-04-01T23:12:07.623Z,4.70
2019-04-01T23:14:37.116Z,4.70
2019-04-01T23:17:06.512Z,4.60
2019-04-01T23:19:35.837Z,4.70
2019-04-01T23:22:05.497Z,4.70
2019-04-01T23:24:34.894Z,4.70
2019-04-01T23:27:04.295Z,4.70
2019-04-01T23:29:33.641Z,4.60
2019-04-01T23:32:03.053Z,4.60
2019-04-01T23:34:32.368Z,4.60
2019-04-01T23:37:01.945Z,4.60
2019-04-01T23:39:31.258Z,4.50
2019-04-01T23:42:00.650Z,4.50
2019-04-01T23:44:33.114Z,4.50
2019-04-01T23:47:02.459Z,4.50
2019-04-01T23:49:31.784Z,4.40
2019-04-01T23:52:01.125Z,4.40
2019-04-01T23:54:31.644Z,4.40
2019-04-01T23:57:01.091Z,4.40
2019-04-01T23:59:30.467Z,4.30
